createdAt,value
2018-11-05T00:02:04.862Z,141.10
2018-11-05T00:04:36.903Z,141.90
2018-11-05T00:07:08.893Z,162.97
2018-11-05T00:09:40.927Z,128.73
2018-11-05T00:12:12.951Z,137.17
2018-11-05T00:14:44.982Z,137.40
2018-11-05T00:17:16.999Z,133.97
2018-11-05T00:19:49.065Z,159.23
2018-11-05T00:22:21.067Z,140.40
2018-11-05T00:24:53.113Z,142.40
2018-11-05T00:27:25.116Z,140.43
2018-11-05T00:29:57.137Z,155.43
2018-11-05T00:32:29.156Z,167.07
2018-11-05T00:35:01.183Z,156.27
2018-11-05T00:37:33.317Z,149.73
2018-11-05T00:40:10.903Z,140.97
2018-11-05T00:42:43.787Z,151.07
2018-11-05T00:45:15.807Z,136.43
2018-11-05T00:47:47.843Z,149.47
2018-11-05T00:50:19.846Z,140.33
2018-11-05T00:52:51.875Z,147.33
2018-11-05T00:55:23.885Z,161.87
2018-11-05T00:57:55.900Z,159.00
2018-11-05T01:00:27.937Z,146.67
2018-11-05T01:03:00.208Z,145.80
2018-11-05T01:05:32.319Z,158.20
2018-11-05T01:08:04.945Z,156.83
2018-11-05T01:10:37.054Z,145.67
2018-11-05T01:13:09.301Z,155.90
2018-11-05T01:15:41.404Z,164.80
2018-11-05T01:18:13.499Z,163.13
2018-11-05T01:20:45.633Z,171.27
2018-11-05T01:23:17.723Z,180.47
2018-11-05T01:25:49.971Z,170.10
2018-11-05T01:28:22.009Z,184.77
2018-11-05T01:30:54.035Z,185.43
2018-11-05T01:33:26.137Z,202.13
2018-11-05T01:35:58.247Z,179.63
2018-11-05T01:38:30.308Z,194.03
2018-11-05T01:41:02.351Z,205.03
2018-11-05T01:43:34.345Z,188.13
2018-11-05T01:46:06.412Z,202.40
2018-11-05T01:48:38.435Z,206.83
2018-11-05T01:51:10.419Z,198.23
2018-11-05T01:53:42.474Z,191.80
2018-11-05T01:56:14.485Z,204.97
2018-11-05T01:58:46.489Z,208.10
2018-11-05T02:01:18.542Z,202.37
2018-11-05T02:03:50.532Z,192.73
2018-11-05T02:06:22.550Z,214.83
2018-11-05T02:08:54.590Z,201.73
2018-11-05T02:11:26.599Z,211.27
2018-11-05T02:13:58.662Z,200.87
2018-11-05T02:16:30.676Z,213.70
2018-11-05T02:19:02.666Z,208.23
2018-11-05T02:21:34.709Z,204.20
2018-11-05T02:24:06.722Z,211.30
2018-11-05T02:26:38.739Z,190.27
2018-11-05T02:29:10.773Z,197.43
2018-11-05T02:31:42.956Z,211.27
2018-11-05T02:34:15.113Z,202.57
2018-11-05T02:36:47.132Z,211.70
2018-11-05T02:39:19.186Z,200.37
2018-11-05T02:41:51.672Z,213.27
2018-11-05T02:44:23.699Z,203.67
2018-11-05T02:46:55.746Z,210.63
2018-11-05T02:49:27.733Z,200.20
2018-11-05T02:51:59.754Z,201.83
2018-11-05T02:54:31.734Z,210.40
2018-11-05T02:57:03.742Z,194.13
2018-11-05T02:59:35.805Z,208.43
2018-11-05T03:02:07.798Z,213.07
2018-11-05T03:04:39.811Z,210.63
2018-11-05T03:07:12.334Z,209.40
2018-11-05T03:09:44.486Z,210.03
2018-11-05T03:12:16.515Z,198.33
2018-11-05T03:14:48.609Z,219.00
2018-11-05T03:17:20.650Z,202.90
2018-11-05T03:19:52.762Z,208.30
2018-11-05T03:22:24.787Z,202.30
2018-11-05T03:24:56.831Z,207.17
2018-11-05T03:27:28.857Z,204.17
2018-11-05T03:30:00.944Z,207.00
2018-11-05T03:32:32.979Z,201.87
2018-11-05T03:35:05.739Z,205.67
2018-11-05T03:37:38.328Z,199.90
2018-11-05T03:40:11.212Z,198.97
2018-11-05T03:42:43.546Z,183.70
2018-11-05T03:45:16.157Z,194.90
2018-11-05T03:47:48.244Z,185.63
2018-11-05T03:50:20.271Z,189.03
2018-11-05T03:52:52.409Z,208.63
2018-11-05T03:55:24.721Z,198.77
2018-11-05T03:57:56.803Z,194.90
2018-11-05T04:00:28.811Z,184.83
2018-11-05T04:03:00.980Z,193.53
2018-11-05T04:05:33.027Z,203.33
2018-11-05T04:08:05.114Z,196.17
2018-11-05T04:10:37.184Z,200.77
2018-11-05T04:13:09.193Z,186.17
2018-11-05T04:15:41.358Z,204.93
2018-11-05T04:18:13.257Z,182.30
2018-11-05T04:20:45.296Z,183.17
2018-11-05T04:23:17.339Z,194.43
2018-11-05T04:25:49.387Z,193.40
2018-11-05T04:28:21.438Z,178.70
2018-11-05T04:30:53.437Z,191.60
2018-11-05T04:33:25.495Z,183.83
2018-11-05T04:35:57.525Z,166.60
2018-11-05T04:38:29.573Z,185.30
2018-11-05T04:41:01.614Z,177.50
2018-11-05T04:43:33.683Z,184.87
2018-11-05T04:46:05.686Z,188.67
2018-11-05T04:48:37.873Z,183.57
2018-11-05T04:51:09.885Z,190.47
2018-11-05T04:53:41.982Z,182.53
2018-11-05T04:56:14.027Z,174.40
2018-11-05T04:58:46.058Z,179.43
2018-11-05T05:01:18.046Z,160.80
2018-11-05T05:03:50.111Z,174.03
2018-11-05T05:06:22.103Z,161.10
2018-11-05T05:08:54.203Z,162.07
2018-11-05T05:11:26.272Z,180.17
2018-11-05T05:13:58.273Z,172.80
2018-11-05T05:16:30.368Z,179.27
2018-11-05T05:19:02.928Z,167.97
2018-11-05T05:21:35.034Z,169.40
2018-11-05T05:24:07.087Z,160.03
2018-11-05T05:26:39.133Z,162.20
2018-11-05T05:29:11.182Z,152.03
2018-11-05T05:31:43.231Z,148.23
2018-11-05T05:34:15.222Z,159.53
2018-11-05T05:36:47.251Z,155.17
2018-11-05T05:39:19.270Z,154.87
2018-11-05T05:41:51.302Z,159.80
2018-11-05T05:44:23.302Z,144.07
2018-11-05T05:46:55.338Z,144.40
2018-11-05T05:49:27.402Z,158.30
2018-11-05T05:51:59.548Z,156.73
2018-11-05T05:54:31.737Z,157.37
2018-11-05T05:57:03.814Z,142.33
2018-11-05T05:59:35.829Z,148.80
2018-11-05T06:02:08.050Z,149.87
2018-11-05T06:04:40.473Z,145.97
2018-11-05T06:07:12.465Z,140.70
2018-11-05T06:09:44.487Z,161.07
2018-11-05T06:12:16.480Z,143.80
2018-11-05T06:14:48.536Z,141.80
2018-11-05T06:17:20.533Z,136.10
2018-11-05T06:19:52.550Z,149.67
2018-11-05T06:22:24.547Z,156.07
2018-11-05T06:24:56.906Z,136.53
2018-11-05T06:27:28.910Z,141.00
2018-11-05T06:30:00.941Z,144.40
2018-11-05T06:32:32.970Z,147.20
2018-11-05T06:35:06.311Z,155.00
2018-11-05T06:37:38.622Z,142.43
2018-11-05T06:40:12.551Z,149.83
2018-11-05T06:42:44.819Z,133.43
2018-11-05T06:45:18.139Z,148.23
2018-11-05T06:47:50.558Z,149.00
2018-11-05T06:50:24.712Z,128.37
2018-11-05T06:52:56.813Z,129.80
2018-11-05T06:55:28.778Z,121.83
2018-11-05T06:58:00.796Z,136.90
2018-11-05T07:00:32.801Z,131.63
2018-11-05T07:03:04.803Z,152.00
2018-11-05T07:05:36.901Z,140.83
2018-11-05T07:08:08.954Z,149.60
2018-11-05T07:10:40.985Z,145.43
2018-11-05T07:13:13.104Z,141.23
2018-11-05T07:15:45.127Z,137.70
2018-11-05T07:18:17.214Z,139.93
2018-11-05T07:20:49.138Z,154.53
2018-11-05T07:23:21.173Z,136.77
2018-11-05T07:25:53.174Z,125.80
2018-11-05T07:28:25.211Z,132.43
2018-11-05T07:30:57.266Z,144.50
2018-11-05T07:33:29.428Z,127.13
2018-11-05T07:36:01.335Z,126.60
2018-11-05T07:38:33.456Z,132.50
2018-11-05T07:41:05.541Z,131.03
2018-11-05T07:43:37.581Z,132.90
2018-11-05T07:46:09.623Z,113.10
2018-11-05T07:48:41.624Z,137.10
2018-11-05T07:51:13.643Z,124.07
2018-11-05T07:53:45.692Z,102.43
2018-11-05T07:56:17.825Z,132.63
2018-11-05T07:58:49.837Z,124.07
2018-11-05T08:01:21.865Z,116.57
2018-11-05T08:03:53.866Z,122.80
2018-11-05T08:06:25.911Z,118.87
2018-11-05T08:08:57.990Z,119.40
2018-11-05T08:11:30.055Z,127.17
2018-11-05T08:14:02.194Z,122.67
2018-11-05T08:16:34.503Z,116.97
2018-11-05T08:19:07.174Z,122.93
2018-11-05T08:21:39.235Z,111.17
2018-11-05T08:24:11.731Z,103.80
2018-11-05T08:26:43.725Z,100.90
2018-11-05T08:29:15.748Z,108.73
2018-11-05T08:31:47.774Z,111.20
2018-11-05T08:34:19.862Z,111.47
2018-11-05T08:36:51.873Z,117.13
2018-11-05T08:39:23.918Z,110.43
2018-11-05T08:41:55.926Z,116.40
2018-11-05T08:44:27.949Z,122.10
2018-11-05T08:47:00.001Z,112.77
2018-11-05T08:49:32.013Z,97.73
2018-11-05T08:52:04.054Z,103.40
2018-11-05T08:54:36.079Z,117.23
2018-11-05T08:57:08.143Z,104.93
2018-11-05T08:59:40.210Z,101.00
2018-11-05T09:02:12.240Z,95.97
2018-11-05T09:04:44.430Z,105.73
2018-11-05T09:07:16.375Z,96.80
2018-11-05T09:09:48.484Z,96.93
2018-11-05T09:12:20.413Z,86.87
2018-11-05T09:14:52.427Z,94.67
2018-11-05T09:17:24.474Z,90.97
2018-11-05T09:19:56.523Z,98.07
2018-11-05T09:22:28.521Z,96.97
2018-11-05T09:25:00.572Z,87.00
2018-11-05T09:27:32.603Z,97.70
2018-11-05T09:30:06.965Z,95.80
2018-11-05T09:32:38.957Z,91.00
2018-11-05T09:35:11.010Z,87.53
2018-11-05T09:37:43.085Z,90.53
2018-11-05T09:40:19.436Z,92.40
2018-11-05T09:42:51.761Z,91.50
2018-11-05T09:45:25.181Z,95.13
2018-11-05T09:47:57.204Z,92.93
2018-11-05T09:50:29.293Z,89.90
2018-11-05T09:53:01.287Z,88.70
2018-11-05T09:55:33.310Z,105.93
2018-11-05T09:58:05.354Z,103.63
2018-11-05T10:00:39.107Z,104.00
2018-11-05T10:03:14.900Z,91.67
2018-11-05T10:05:46.750Z,89.43
2018-11-05T10:08:18.786Z,87.57
2018-11-05T10:10:50.816Z,84.77
2018-11-05T10:13:22.844Z,89.67
2018-11-05T10:15:54.851Z,91.90
2018-11-05T10:18:26.871Z,86.57
2018-11-05T10:20:58.851Z,95.17
2018-11-05T10:23:30.871Z,86.90
2018-11-05T10:26:02.876Z,84.57
2018-11-05T10:28:34.898Z,87.90
2018-11-05T10:31:06.953Z,81.37
2018-11-05T10:33:39.047Z,78.63
2018-11-05T10:36:12.351Z,69.40
2018-11-05T10:38:44.368Z,77.07
2018-11-05T10:41:16.775Z,80.40
2018-11-05T10:43:48.779Z,78.17
2018-11-05T10:46:20.893Z,77.10
2018-11-05T10:48:52.821Z,74.37
2018-11-05T10:51:24.926Z,80.90
2018-11-05T10:53:56.887Z,91.10
2018-11-05T10:56:28.901Z,85.40
2018-11-05T10:59:00.995Z,73.57
2018-11-05T11:01:38.788Z,80.67
2018-11-05T11:04:16.681Z,85.07
2018-11-05T11:06:48.627Z,79.10
2018-11-05T11:09:20.776Z,82.53
2018-11-05T11:11:52.782Z,75.07
2018-11-05T11:14:24.808Z,81.20
2018-11-05T11:16:57.017Z,75.20
2018-11-05T11:19:29.050Z,78.93
2018-11-05T11:22:01.096Z,82.67
2018-11-05T11:24:33.884Z,78.17
2018-11-05T11:27:05.927Z,81.23
2018-11-05T11:29:37.950Z,76.50
2018-11-05T11:32:09.974Z,71.37
2018-11-05T11:34:42.074Z,75.67
2018-11-05T11:37:14.162Z,66.73
2018-11-05T11:39:46.113Z,69.13
2018-11-05T11:42:18.139Z,69.13
2018-11-05T11:44:50.164Z,69.73
2018-11-05T11:47:22.246Z,72.23
2018-11-05T11:49:54.238Z,67.20
2018-11-05T11:52:26.284Z,71.00
2018-11-05T11:54:58.325Z,64.63
2018-11-05T11:57:30.375Z,65.90
2018-11-05T12:00:02.386Z,74.73
2018-11-05T12:02:34.409Z,79.03
2018-11-05T12:05:06.945Z,67.00
2018-11-05T12:07:39.413Z,68.53
2018-11-05T12:10:17.445Z,63.43
2018-11-05T12:12:49.493Z,69.93
2018-11-05T12:15:22.221Z,72.33
2018-11-05T12:17:54.281Z,70.90
2018-11-05T12:20:26.322Z,67.73
2018-11-05T12:22:58.337Z,65.60
2018-11-05T12:25:30.396Z,65.03
2018-11-05T12:28:02.428Z,63.83
2018-11-05T12:30:34.468Z,63.63
2018-11-05T12:33:06.519Z,63.37
2018-11-05T12:35:38.510Z,77.80
2018-11-05T12:38:10.538Z,70.40
2018-11-05T12:40:42.541Z,58.70
2018-11-05T12:43:14.559Z,65.07
2018-11-05T12:45:46.569Z,66.77
2018-11-05T12:48:18.586Z,62.83
2018-11-05T12:50:50.599Z,61.47
2018-11-05T12:53:22.608Z,59.30
2018-11-05T12:55:54.638Z,61.23
2018-11-05T12:58:26.625Z,65.97
2018-11-05T13:00:58.687Z,73.50
2018-11-05T13:03:30.696Z,68.30
2018-11-05T13:06:02.722Z,65.77
2018-11-05T13:08:34.771Z,66.97
2018-11-05T13:11:06.823Z,64.37
2018-11-05T13:13:39.018Z,63.07
2018-11-05T13:16:11.067Z,63.93
2018-11-05T13:18:43.123Z,63.20
2018-11-05T13:21:15.138Z,64.93
2018-11-05T13:23:47.199Z,64.80
2018-11-05T13:26:19.206Z,65.53
2018-11-05T13:28:51.235Z,64.40
2018-11-05T13:31:23.270Z,67.70
2018-11-05T13:33:55.280Z,65.70
2018-11-05T13:36:27.315Z,63.83
2018-11-05T13:38:59.314Z,66.03
2018-11-05T13:41:31.331Z,71.07
2018-11-05T13:44:03.333Z,73.27
2018-11-05T13:46:35.749Z,68.47
2018-11-05T13:49:08.412Z,67.23
2018-11-05T13:51:39.718Z,75.17
2018-11-05T13:54:11.851Z,75.97
2018-11-05T13:56:43.810Z,77.97
2018-11-05T13:59:15.863Z,74.60
2018-11-05T14:01:49.169Z,69.40
2018-11-05T14:04:21.230Z,73.93
2018-11-05T14:06:53.267Z,70.33
2018-11-05T14:09:25.287Z,80.23
2018-11-05T14:11:57.322Z,79.73
2018-11-05T14:14:29.358Z,75.03
2018-11-05T14:17:01.334Z,74.90
2018-11-05T14:19:33.352Z,80.00
2018-11-05T14:22:05.372Z,79.07
2018-11-05T14:24:37.395Z,74.50
2018-11-05T14:27:09.408Z,76.80
2018-11-05T14:29:41.853Z,80.27
2018-11-05T14:32:13.711Z,76.93
2018-11-05T14:34:47.278Z,77.47
2018-11-05T14:37:19.828Z,80.50
2018-11-05T14:39:51.886Z,78.20
2018-11-05T14:42:23.938Z,91.90
2018-11-05T14:44:55.965Z,75.93
2018-11-05T14:47:28.065Z,85.43
2018-11-05T14:50:00.091Z,80.07
2018-11-05T14:52:32.116Z,72.47
2018-11-05T14:55:05.391Z,94.37
2018-11-05T14:57:37.432Z,85.30
2018-11-05T15:00:11.586Z,84.87
2018-11-05T15:02:44.233Z,86.90
2018-11-05T15:05:16.548Z,84.00
2018-11-05T15:07:49.206Z,88.27
2018-11-05T15:10:22.442Z,97.27
2018-11-05T15:12:54.467Z,80.47
2018-11-05T15:15:26.498Z,80.57
2018-11-05T15:17:58.509Z,92.40
2018-11-05T15:20:30.592Z,83.57
2018-11-05T15:23:02.571Z,80.13
2018-11-05T15:25:34.631Z,89.57
2018-11-05T15:28:06.637Z,88.50
2018-11-05T15:30:38.715Z,98.47
2018-11-05T15:33:10.745Z,90.90
2018-11-05T15:35:42.770Z,89.53
2018-11-05T15:38:14.794Z,88.77
2018-11-05T15:40:46.819Z,96.93
2018-11-05T15:43:18.890Z,87.30
2018-11-05T15:45:50.910Z,103.60
2018-11-05T15:48:22.965Z,100.30
2018-11-05T15:50:55.050Z,105.47
2018-11-05T15:53:27.457Z,99.67
2018-11-05T15:55:59.270Z,99.33
2018-11-05T15:58:31.327Z,87.63
2018-11-05T16:01:03.650Z,92.03
2018-11-05T16:03:35.643Z,89.73
2018-11-05T16:06:07.741Z,96.97
2018-11-05T16:08:39.745Z,92.83
2018-11-05T16:11:11.779Z,96.20
2018-11-05T16:13:44.002Z,91.40
2018-11-05T16:16:16.057Z,93.73
2018-11-05T16:18:48.055Z,90.20
2018-11-05T16:21:20.110Z,90.20
2018-11-05T16:23:52.181Z,82.60
2018-11-05T16:26:24.243Z,80.80
2018-11-05T16:28:56.245Z,84.50
2018-11-05T16:31:28.285Z,85.37
2018-11-05T16:34:00.284Z,88.63
2018-11-05T16:36:32.403Z,84.83
2018-11-05T16:39:07.166Z,82.73
2018-11-05T16:41:39.733Z,82.53
2018-11-05T16:44:11.774Z,79.37
2018-11-05T16:46:43.815Z,80.90
2018-11-05T16:49:15.923Z,104.70
2018-11-05T16:51:48.176Z,81.60
2018-11-05T16:54:20.279Z,88.03
2018-11-05T16:56:52.326Z,92.43
2018-11-05T16:59:24.413Z,86.87
2018-11-05T17:01:56.950Z,95.57
2018-11-05T17:04:28.494Z,95.77
2018-11-05T17:07:00.500Z,105.07
2018-11-05T17:09:32.533Z,100.30
2018-11-05T17:12:05.129Z,114.13
2018-11-05T17:14:37.182Z,90.47
2018-11-05T17:17:09.342Z,105.43
2018-11-05T17:19:41.465Z,108.37
2018-11-05T17:22:13.609Z,96.30
2018-11-05T17:24:45.649Z,96.17
2018-11-05T17:27:17.749Z,79.37
2018-11-05T17:29:49.794Z,78.40
2018-11-05T17:32:21.863Z,83.63
2018-11-05T17:34:53.872Z,84.33
2018-11-05T17:37:25.942Z,79.23
2018-11-05T17:39:58.058Z,75.10
2018-11-05T17:42:30.178Z,71.50
2018-11-05T17:45:02.346Z,70.73
2018-11-05T17:47:34.374Z,75.53
2018-11-05T17:50:09.239Z,71.97
2018-11-05T17:52:41.640Z,69.73
2018-11-05T17:55:14.054Z,73.60
2018-11-05T17:57:46.969Z,68.47
2018-11-05T18:00:20.212Z,67.30
2018-11-05T18:02:52.274Z,72.93
2018-11-05T18:05:24.330Z,74.27
2018-11-05T18:07:56.372Z,66.27
2018-11-05T18:10:28.430Z,71.83
2018-11-05T18:13:00.535Z,68.87
2018-11-05T18:15:32.592Z,75.53
2018-11-05T18:18:04.645Z,74.33
2018-11-05T18:20:36.666Z,73.00
2018-11-05T18:23:08.710Z,74.23
2018-11-05T18:25:40.924Z,69.33
2018-11-05T18:28:12.976Z,68.63
2018-11-05T18:30:45.053Z,67.17
2018-11-05T18:33:17.064Z,71.77
2018-11-05T18:35:49.088Z,67.73
2018-11-05T18:38:21.418Z,65.77
2018-11-05T18:40:53.407Z,63.87
2018-11-05T18:43:25.450Z,62.97
2018-11-05T18:45:57.492Z,65.30
2018-11-05T18:48:29.652Z,71.33
2018-11-05T18:51:01.909Z,64.93
2018-11-05T18:53:34.134Z,57.13
2018-11-05T18:56:06.282Z,60.83
2018-11-05T18:58:38.435Z,62.33
2018-11-05T19:01:10.511Z,66.60
2018-11-05T19:03:42.590Z,59.50
2018-11-05T19:06:14.752Z,52.83
2018-11-05T19:08:46.800Z,61.07
2018-11-05T19:11:18.863Z,63.30
2018-11-05T19:13:50.957Z,58.17
2018-11-05T19:16:23.437Z,57.50
2018-11-05T19:18:55.519Z,54.73
2018-11-05T19:21:28.002Z,57.60
2018-11-05T19:24:00.269Z,55.47
2018-11-05T19:26:32.278Z,57.93
2018-11-05T19:29:04.582Z,54.67
2018-11-05T19:31:37.051Z,53.70
2018-11-05T19:34:09.483Z,61.93
2018-11-05T19:36:41.346Z,54.20
2018-11-05T19:39:13.707Z,49.47
2018-11-05T19:41:45.725Z,58.37
2018-11-05T19:44:17.786Z,61.93
2018-11-05T19:46:49.835Z,51.27
2018-11-05T19:49:21.871Z,53.20
2018-11-05T19:51:53.927Z,57.87
2018-11-05T19:54:25.967Z,62.47
2018-11-05T19:56:57.990Z,67.23
2018-11-05T19:59:30.124Z,49.33
2018-11-05T20:02:02.211Z,52.17
2018-11-05T20:04:34.322Z,57.67
2018-11-05T20:07:06.323Z,58.03
2018-11-05T20:09:38.379Z,54.60
2018-11-05T20:12:10.451Z,55.30
2018-11-05T20:14:42.489Z,56.33
2018-11-05T20:17:14.618Z,51.90
2018-11-05T20:19:46.629Z,57.63
2018-11-05T20:22:18.794Z,55.60
2018-11-05T20:24:50.775Z,53.70
2018-11-05T20:27:22.875Z,67.47
2018-11-05T20:29:54.944Z,54.63
2018-11-05T20:32:27.515Z,55.27
2018-11-05T20:34:59.011Z,52.83
2018-11-05T20:37:31.071Z,53.37
2018-11-05T20:40:03.337Z,58.10
2018-11-05T20:42:35.308Z,50.53
2018-11-05T20:45:07.396Z,56.90
2018-11-05T20:47:39.768Z,54.67
2018-11-05T20:50:12.685Z,52.57
2018-11-05T20:52:44.719Z,54.37
2018-11-05T20:55:17.438Z,58.43
2018-11-05T20:57:49.495Z,54.60
2018-11-05T21:00:22.069Z,45.80
2018-11-05T21:02:54.110Z,55.20
2018-11-05T21:05:26.147Z,56.07
2018-11-05T21:07:58.228Z,50.60
2018-11-05T21:10:30.279Z,49.43
2018-11-05T21:13:02.340Z,58.03
2018-11-05T21:15:34.376Z,47.77
2018-11-05T21:18:06.592Z,51.97
2018-11-05T21:20:38.480Z,48.83
2018-11-05T21:23:10.524Z,47.40
2018-11-05T21:25:42.574Z,55.17
2018-11-05T21:28:14.607Z,48.27
2018-11-05T21:30:46.701Z,49.57
2018-11-05T21:33:18.774Z,50.60
2018-11-05T21:35:50.847Z,44.43
2018-11-05T21:38:22.869Z,47.80
2018-11-05T21:40:54.899Z,45.30
2018-11-05T21:43:26.943Z,46.07
2018-11-05T21:45:58.966Z,49.90
2018-11-05T21:48:31.019Z,47.37
2018-11-05T21:51:03.071Z,45.73
2018-11-05T21:53:35.154Z,42.23
2018-11-05T21:56:07.205Z,50.33
2018-11-05T21:58:39.245Z,48.07
2018-11-05T22:01:11.286Z,46.33
2018-11-05T22:03:43.391Z,45.87
2018-11-05T22:06:15.450Z,39.17
2018-11-05T22:08:47.496Z,45.77
2018-11-05T22:11:19.553Z,47.83
2018-11-05T22:13:51.559Z,46.57
2018-11-05T22:16:23.581Z,43.83
2018-11-05T22:18:55.622Z,45.53
2018-11-05T22:21:27.783Z,40.83
2018-11-05T22:23:59.910Z,47.33
2018-11-05T22:26:32.007Z,43.10
2018-11-05T22:29:04.035Z,48.23
2018-11-05T22:31:36.135Z,43.43
2018-11-05T22:34:08.130Z,46.83
2018-11-05T22:36:40.146Z,40.63
2018-11-05T22:39:12.145Z,37.37
2018-11-05T22:41:44.173Z,45.07
2018-11-05T22:44:16.192Z,40.40
2018-11-05T22:46:48.277Z,48.87
2018-11-05T22:49:20.238Z,49.03
2018-11-05T22:51:52.267Z,36.63
2018-11-05T22:54:24.575Z,42.30
2018-11-05T22:56:56.686Z,43.17
2018-11-05T22:59:28.707Z,46.40
2018-11-05T23:02:00.792Z,41.10
2018-11-05T23:04:32.973Z,36.63
2018-11-05T23:07:05.007Z,39.43
2018-11-05T23:09:37.006Z,39.63
2018-11-05T23:12:09.056Z,40.07
2018-11-05T23:14:41.101Z,36.53
2018-11-05T23:17:13.126Z,48.20
2018-11-05T23:19:45.137Z,41.83
2018-11-05T23:22:17.146Z,41.47
2018-11-05T23:24:49.167Z,43.63
2018-11-05T23:27:21.207Z,40.00
2018-11-05T23:29:53.252Z,41.37
2018-11-05T23:32:25.260Z,44.03
2018-11-05T23:34:57.290Z,44.37
2018-11-05T23:37:29.327Z,37.60
2018-11-05T23:40:01.346Z,43.27
2018-11-05T23:42:33.512Z,40.43
2018-11-05T23:45:08.546Z,45.13
2018-11-05T23:47:40.583Z,41.07
2018-11-05T23:50:12.736Z,39.80
2018-11-05T23:52:44.767Z,38.53
2018-11-05T23:55:16.834Z,39.63
2018-11-05T23:57:48.844Z,40.30
